Nearby METAR Reports

 

ENTO - Torp (civ/Nor-Af, Norway
Distance from station: NNØ 26km
Oppdatert: 19/02/2018 12:50
Overskyet
Overskyet
 Vind fra NNØ
Vind: NNØ 20 km/h
Temperatur: 0°C
Wind Chill: -6°C
Duggpunkt: -2°C
Fuktighet: 87%
Barometer: 1022 hPa
Clouds: Overskyet
Visibility: 10 km
Cloud details: Overskyet 305 m
2018/02/19 11:50 ENTO 191150Z 02011KT 9999 OVC010 M00/M02 Q1022
ENSN - Skien/Geiteryggen, Norway
Distance from station: NV 31km
Oppdatert: 09/11/2015 09:50
NOT Current
Klart
Klart
 Vind fra SSV
Vind: SSV 19 km/h, Vindkast: 41 km/h
Temperatur: 7°C
Wind Chill: 4°C
Duggpunkt: 3°C
Fuktighet: 76%
Barometer: 1000 hPa
Oversikt: Klart
Visibility: greater than 10 km
2015/11/09 08:50 ENSN 090850Z 20010G22KT 150V240 CAVOK 07/03 Q1000